Terminal Aerodrome Forecast
Issued by NWS Melbourne, FL

Home | Current Version | Previous Version | Text Only | Print | Product List | Glossary On
Versions: 1 2 3 4 5 6 7 8 9 10 11 12 13 14
998
FTUS42 KMLB 110520
TAFDAB
TAF
KDAB 110520Z 1106/1206 VRB03KT P6SM SKC
     FM111500 31005KT P6SM SKC
     FM112000 24004KT P6SM SKC
     FM120000 VRB02KT P6SM SKC=

USA.gov is the U.S. government's official web portal to all federal, state and local government web resources and services.